Time;durP1;ratioP1;P1;durP2;ratioP2;P2;SDS_P1;SDS_P2;PMS_P1;PMS_P2;Temp;Humidity;BMP_temperature;BMP_pressure;BME280_temperature;BME280_humidity;BME280_pressure;Samples;Min_cycle;Max_cycle;Signal;HPM_P1;HPM_P2
2022/10/18 00:00:14;;;;;;;5.90;3.53;;;19.80;79.10;;;-142.21;100.00;112049.66;5113608;28;20290;-70
2022/10/18 00:02:41;;;;;;;6.60;3.60;;;19.80;79.30;;;-142.21;100.00;112049.66;5114307;28;20210;-71
2022/10/18 00:05:09;;;;;;;6.23;3.87;;;19.80;79.10;;;-142.21;100.00;112049.66;5113879;28;20204;-71
2022/10/18 00:07:36;;;;;;;6.57;3.40;;;19.80;79.20;;;-142.21;100.00;112049.66;5114004;28;20306;-70
2022/10/18 00:10:07;;;;;;;5.60;3.83;;;19.80;79.20;;;-142.21;100.00;112049.66;5113674;28;20211;-71
2022/10/18 00:12:35;;;;;;;7.60;3.40;;;19.80;79.50;;;-142.21;100.00;112049.66;5114056;28;20188;-72
2022/10/18 00:15:04;;;;;;;6.63;3.63;;;19.80;79.40;;;-142.21;100.00;112049.66;5113472;28;20231;-72
2022/10/18 00:17:33;;;;;;;10.30;3.73;;;19.80;79.50;;;-142.21;100.00;112049.66;5113593;28;20232;-71
2022/10/18 00:20:00;;;;;;;6.60;3.80;;;19.90;79.60;;;-142.21;100.00;112049.66;5113411;28;20551;-71
2022/10/18 00:22:27;;;;;;;9.77;3.63;;;19.80;79.50;;;-142.21;100.00;112049.66;5114309;28;20218;-71
2022/10/18 00:24:55;;;;;;;8.83;3.70;;;19.80;79.60;;;-142.21;100.00;112049.66;5113459;28;20203;-71
2022/10/18 00:27:26;;;;;;;7.23;4.20;;;19.80;79.70;;;-142.21;100.00;112049.66;5113448;28;20287;-71
2022/10/18 00:29:53;;;;;;;9.37;3.93;;;19.80;79.80;;;-142.21;100.00;112049.66;5113321;28;20224;-70
2022/10/18 00:32:21;;;;;;;5.63;4.00;;;19.70;79.70;;;-142.21;100.00;112049.66;5113531;28;20536;-71
2022/10/18 00:34:48;;;;;;;6.30;3.67;;;19.80;79.70;;;-142.21;100.00;112049.66;5113567;28;20231;-70
2022/10/18 00:37:15;;;;;;;5.57;3.73;;;19.70;80.00;;;-142.21;100.00;112049.66;5113179;28;20720;-71
2022/10/18 00:39:43;;;;;;;8.30;3.90;;;19.70;80.30;;;-142.21;100.00;112049.66;5113079;28;20528;-70
2022/10/18 00:42:16;;;;;;;6.70;3.60;;;19.70;80.30;;;-142.21;100.00;112049.66;5112577;28;20769;-72
2022/10/18 00:45:22;;;;;;;8.97;3.40;;;19.70;80.30;;;-142.21;100.00;112049.66;5113321;28;20692;-70
2022/10/18 00:47:55;;;;;;;5.07;3.80;;;19.80;80.60;;;-142.21;100.00;112049.66;5109877;28;20214;-71
2022/10/18 00:50:26;;;;;;;8.03;3.60;;;19.80;80.20;;;-142.21;100.00;112049.66;5112915;28;20198;-71
2022/10/18 00:52:58;;;;;;;8.10;3.67;;;19.80;80.20;;;-142.21;100.00;112049.66;5113481;28;20192;-70
2022/10/18 00:55:26;;;;;;;4.80;3.70;;;19.90;80.20;;;-142.21;100.00;112049.66;5112336;28;20188;-70
2022/10/18 00:57:55;;;;;;;7.57;3.83;;;19.90;80.00;;;-142.21;100.00;112049.66;5113444;28;20203;-71
2022/10/18 01:00:24;;;;;;;8.50;3.73;;;19.90;80.00;;;-142.21;100.00;112049.66;5112445;28;20447;-71
2022/10/18 01:02:52;;;;;;;4.47;3.60;;;20.00;80.10;;;-142.21;100.00;112049.66;5113261;28;20295;-70
2022/10/18 01:05:20;;;;;;;4.93;3.83;;;20.00;80.10;;;-142.21;100.00;112049.66;5112359;28;20218;-70
2022/10/18 01:08:32;;;;;;;4.67;3.30;;;20.00;80.00;;;-142.21;100.00;112049.66;5112695;28;20196;-70
2022/10/18 01:11:18;;;;;;;8.17;3.70;;;20.00;80.50;;;-142.21;100.00;112049.66;5113173;28;20223;-71
2022/10/18 01:14:01;;;;;;;4.60;3.63;;;20.00;80.60;;;-142.21;100.00;112049.66;5112753;28;20225;-71
2022/10/18 01:16:43;;;;;;;9.03;4.17;;;20.00;80.70;;;-142.21;100.00;112049.66;5112641;28;20194;-71
2022/10/18 01:19:42;;;;;;;4.30;3.73;;;20.00;80.30;;;-142.21;100.00;112049.66;5111838;28;20242;-71
2022/10/18 01:22:20;;;;;;;6.73;3.60;;;20.00;80.90;;;-142.21;100.00;112049.66;5112352;28;20192;-72
2022/10/18 01:25:03;;;;;;;9.67;3.47;;;19.90;80.50;;;-142.21;100.00;112049.66;5112240;28;20279;-71
2022/10/18 01:27:55;;;;;;;3.97;3.47;;;19.80;81.00;;;-142.21;100.00;112049.66;5112709;28;20287;-71
2022/10/18 01:30:46;;;;;;;12.10;3.83;;;19.80;81.30;;;-142.21;100.00;112049.66;5111075;28;20234;-71
2022/10/18 01:33:28;;;;;;;4.70;3.70;;;19.80;81.40;;;-142.21;100.00;112049.66;5112114;28;20279;-71
2022/10/18 01:36:04;;;;;;;5.83;3.83;;;19.90;81.30;;;-142.21;100.00;112049.66;5112530;28;20241;-71
2022/10/18 01:38:35;;;;;;;4.83;3.73;;;19.90;81.30;;;-142.21;100.00;112049.66;5111907;28;20627;-70
2022/10/18 01:41:07;;;;;;;9.13;3.97;;;19.90;81.30;;;-142.21;100.00;112049.66;5111676;28;20188;-70
2022/10/18 01:43:36;;;;;;;6.27;3.90;;;19.90;81.40;;;-142.21;100.00;112049.66;5112333;28;20187;-71
2022/10/18 01:46:07;;;;;;;5.57;3.43;;;20.00;81.50;;;-142.21;100.00;112049.66;5112033;28;20203;-71
2022/10/18 01:48:37;;;;;;;5.40;3.40;;;20.00;81.30;;;-142.21;100.00;112049.66;5112242;28;20646;-71
2022/10/18 01:51:07;;;;;;;8.20;4.10;;;20.10;81.50;;;-142.21;100.00;112049.66;5111677;28;20207;-71
2022/10/18 01:53:35;;;;;;;5.67;3.63;;;20.00;81.40;;;-142.21;100.00;112049.66;5112024;28;20255;-71
2022/10/18 01:56:25;;;;;;;4.17;3.57;;;20.00;81.30;;;-142.21;100.00;112049.66;5111928;28;20210;-71
2022/10/18 01:59:14;;;;;;;5.57;3.67;;;20.00;81.40;;;-142.21;100.00;112049.66;5112112;28;20195;-71
2022/10/18 02:02:00;;;;;;;9.00;3.73;;;20.00;81.60;;;-142.21;100.00;112049.66;5111920;28;20199;-71
2022/10/18 02:04:40;;;;;;;10.83;4.33;;;19.90;81.80;;;-142.21;100.00;112049.66;5111231;28;20184;-71
2022/10/18 02:07:20;;;;;;;5.13;3.50;;;19.90;81.70;;;-142.21;100.00;112049.66;5058481;28;20199;-71
2022/10/18 02:09:58;;;;;;;6.40;3.63;;;19.90;81.70;;;-142.21;100.00;112049.66;5111779;28;20282;-71
2022/10/18 02:12:28;;;;;;;7.10;3.50;;;19.90;81.90;;;-142.21;100.00;112049.66;5111032;28;20639;-71
2022/10/18 02:14:58;;;;;;;7.27;3.63;;;19.80;81.70;;;-142.21;100.00;112049.66;5111782;28;20204;-71
2022/10/18 02:17:30;;;;;;;8.83;3.67;;;19.90;82.80;;;-142.21;100.00;112049.66;5111134;28;20615;-71
2022/10/18 02:19:59;;;;;;;6.23;3.37;;;19.90;82.00;;;-142.21;100.00;112049.66;5112102;28;20283;-71
2022/10/18 02:22:31;;;;;;;6.70;3.80;;;19.90;82.00;;;-142.21;100.00;112049.66;5111236;28;20204;-71
2022/10/18 02:25:04;;;;;;;5.87;3.30;;;19.90;81.90;;;-142.21;100.00;112049.66;5111923;28;20238;-71
2022/10/18 02:27:31;;;;;;;14.67;4.00;;;19.90;81.90;;;-142.21;100.00;112049.66;5111918;28;20185;-71
2022/10/18 02:29:58;;;;;;;6.93;3.57;;;19.90;82.00;;;-142.21;100.00;112049.66;5111600;28;20314;-71
2022/10/18 02:32:34;;;;;;;7.37;4.30;;;19.90;82.10;;;-142.21;100.00;112049.66;5111537;28;20295;-71
2022/10/18 02:35:10;;;;;;;6.33;3.70;;;19.80;82.20;;;-142.21;100.00;112049.66;5111313;28;20294;-71
2022/10/18 02:37:40;;;;;;;7.87;3.87;;;19.70;82.50;;;-142.21;100.00;112049.66;5058995;28;20663;-71
2022/10/18 02:40:10;;;;;;;10.43;3.40;;;19.70;82.80;;;-142.21;100.00;112049.66;5110666;28;20759;-71
2022/10/18 02:42:44;;;;;;;5.90;3.67;;;19.60;82.70;;;-142.21;100.00;112049.66;5111501;28;20208;-71
2022/10/18 02:45:12;;;;;;;6.37;3.73;;;19.60;82.90;;;-142.21;100.00;112049.66;5111313;28;20203;-71
2022/10/18 02:47:40;;;;;;;5.10;3.47;;;19.60;82.70;;;-142.21;100.00;112049.66;5111564;28;20292;-71
2022/10/18 02:50:08;;;;;;;8.77;3.37;;;19.60;82.70;;;-142.21;100.00;112049.66;5110891;28;20865;-71
2022/10/18 02:52:36;;;;;;;4.37;3.47;;;19.60;82.70;;;-142.21;100.00;112049.66;5111677;28;20723;-71
2022/10/18 02:55:03;;;;;;;7.97;3.60;;;19.60;82.70;;;-142.21;100.00;112049.66;5111387;28;20481;-71
2022/10/18 02:57:31;;;;;;;6.73;3.67;;;19.60;82.50;;;-142.21;100.00;112049.66;5111756;28;20210;-71
2022/10/18 02:59:58;;;;;;;8.13;3.87;;;19.60;82.10;;;-142.21;100.00;112049.66;5111679;28;20239;-71
2022/10/18 03:02:25;;;;;;;6.57;3.80;;;19.60;82.10;;;-142.21;100.00;112049.66;5110980;28;20528;-71
2022/10/18 03:04:54;;;;;;;6.33;3.33;;;19.60;83.00;;;-142.21;100.00;112049.66;5110362;28;20196;-71
2022/10/18 03:07:21;;;;;;;5.70;3.37;;;19.60;82.30;;;-142.21;100.00;112049.66;5110708;28;20672;-71
2022/10/18 03:09:48;;;;;;;6.07;3.50;;;19.60;82.40;;;-142.21;100.00;112049.66;5111278;28;20302;-71
2022/10/18 03:12:15;;;;;;;7.57;3.63;;;19.60;82.40;;;-142.21;100.00;112049.66;5110795;28;20294;-71
2022/10/18 03:14:43;;;;;;;15.10;3.90;;;19.60;82.20;;;-142.21;100.00;112049.66;5110977;28;20265;-71
2022/10/18 03:17:10;;;;;;;8.20;4.20;;;19.60;82.30;;;-142.21;100.00;112049.66;5110641;28;20208;-72
2022/10/18 03:19:38;;;;;;;7.90;3.70;;;19.60;82.50;;;-142.21;100.00;112049.66;5114974;28;20276;-71
2022/10/18 03:22:06;;;;;;;6.33;3.43;;;19.60;82.60;;;-142.21;100.00;112049.66;5114710;28;20667;-71
2022/10/18 03:24:33;;;;;;;5.50;3.80;;;19.60;82.70;;;-142.21;100.00;112049.66;5115113;28;20200;-71
2022/10/18 03:27:01;;;;;;;7.90;3.50;;;19.60;82.70;;;-142.21;100.00;112049.66;5097072;28;20214;-71
2022/10/18 03:29:28;;;;;;;5.23;3.50;;;19.50;82.70;;;-142.21;100.00;112049.66;5113942;28;20238;-70
2022/10/18 03:31:55;;;;;;;10.33;4.10;;;19.50;82.60;;;-142.21;100.00;112049.66;5114750;28;20524;-71
2022/10/18 03:34:22;;;;;;;8.47;4.00;;;19.50;82.60;;;-142.21;100.00;112049.66;5113917;28;20688;-71
2022/10/18 03:36:49;;;;;;;11.93;3.97;;;19.50;82.60;;;-142.21;100.00;112049.66;5114677;28;20232;-71
2022/10/18 03:39:18;;;;;;;5.67;3.43;;;19.40;82.70;;;-142.21;100.00;112049.66;5114339;28;20295;-71
2022/10/18 03:41:45;;;;;;;5.83;3.70;;;19.40;82.90;;;-142.21;100.00;112049.66;5114856;28;20290;-71
2022/10/18 03:44:12;;;;;;;4.47;3.80;;;19.40;82.70;;;-142.21;100.00;112049.66;5114089;28;20196;-71
2022/10/18 03:46:39;;;;;;;5.13;3.80;;;19.30;82.60;;;-142.21;100.00;112049.66;5114376;28;20294;-70
2022/10/18 03:49:06;;;;;;;6.97;3.70;;;19.30;82.80;;;-142.21;100.00;112049.66;5114686;28;20203;-70
2022/10/18 03:51:33;;;;;;;6.10;3.60;;;19.40;82.90;;;-142.21;100.00;112049.66;5114567;28;20294;-71
2022/10/18 03:54:00;;;;;;;4.23;3.50;;;19.40;82.90;;;-142.21;100.00;112049.66;5114677;28;20525;-71
2022/10/18 03:56:29;;;;;;;4.83;3.50;;;19.40;82.90;;;-142.21;100.00;112049.66;5113957;28;20295;-71
2022/10/18 03:58:57;;;;;;;8.87;4.00;;;19.40;83.00;;;-142.21;100.00;112049.66;5114400;28;20210;-71
2022/10/18 04:01:24;;;;;;;3.93;3.53;;;19.40;82.90;;;-142.21;100.00;112049.66;5113573;28;20564;-71
2022/10/18 04:03:51;;;;;;;4.63;3.57;;;19.40;82.80;;;-142.21;100.00;112049.66;5114067;28;20294;-71
2022/10/18 04:06:20;;;;;;;11.87;4.27;;;19.40;82.90;;;-142.21;100.00;112049.66;5113346;28;20210;-71
2022/10/18 04:08:47;;;;;;;5.57;3.33;;;19.30;82.90;;;-142.21;100.00;112049.66;5114153;28;20212;-71
2022/10/18 04:11:15;;;;;;;3.93;3.43;;;19.40;83.10;;;-142.21;100.00;112049.66;5113672;28;20235;-71
2022/10/18 04:13:43;;;;;;;9.27;4.17;;;19.40;83.00;;;-142.21;100.00;112049.66;5113932;28;20214;-71
2022/10/18 04:16:11;;;;;;;5.80;3.43;;;19.40;83.20;;;-142.21;100.00;112049.66;5112984;28;20230;-70
2022/10/18 04:18:38;;;;;;;4.80;3.70;;;19.40;83.30;;;-142.21;100.00;112049.66;5113768;28;20327;-71
2022/10/18 04:21:06;;;;;;;5.57;3.53;;;19.40;83.30;;;-142.21;100.00;112049.66;5114080;28;20210;-70
2022/10/18 04:23:33;;;;;;;6.40;3.87;;;19.40;83.30;;;-142.21;100.00;112049.66;5112940;28;20200;-70
2022/10/18 04:26:00;;;;;;;7.23;3.67;;;19.30;83.20;;;-142.21;100.00;112049.66;5113576;28;20663;-71
2022/10/18 04:28:27;;;;;;;7.30;3.30;;;19.20;83.40;;;-142.21;100.00;112049.66;5112921;28;20330;-71
2022/10/18 04:30:56;;;;;;;9.03;4.10;;;19.20;83.50;;;-142.21;100.00;112049.66;5112938;28;20200;-71
2022/10/18 04:33:23;;;;;;;9.00;3.87;;;19.20;83.90;;;-142.21;100.00;112049.66;5112911;28;20218;-71
2022/10/18 04:35:53;;;;;;;6.37;3.60;;;19.10;83.80;;;-142.21;100.00;112049.66;5113731;28;20230;-71
2022/10/18 04:38:23;;;;;;;5.60;3.80;;;19.20;84.00;;;-142.21;100.00;112049.66;5113062;28;20250;-71
2022/10/18 04:40:50;;;;;;;7.80;4.03;;;19.10;83.80;;;-142.21;100.00;112049.66;5113719;28;20440;-71
2022/10/18 04:43:17;;;;;;;8.40;4.43;;;19.10;84.40;;;-142.21;100.00;112049.66;5112967;28;20204;-71
2022/10/18 04:45:45;;;;;;;12.17;4.33;;;19.00;84.30;;;-142.21;100.00;112049.66;5113156;28;20569;-71
2022/10/18 04:48:14;;;;;;;8.07;3.63;;;19.10;84.50;;;-142.21;100.00;112049.66;5094925;28;20210;-71
2022/10/18 04:50:41;;;;;;;7.63;3.77;;;19.10;84.20;;;-142.21;100.00;112049.66;5113190;28;20235;-71
2022/10/18 04:53:08;;;;;;;8.70;3.90;;;19.10;84.20;;;-142.21;100.00;112049.66;5113017;28;20200;-71
2022/10/18 04:55:35;;;;;;;7.67;3.90;;;19.00;84.50;;;-142.21;100.00;112049.66;5112740;28;20230;-71
2022/10/18 04:58:03;;;;;;;5.23;3.80;;;19.00;84.60;;;-142.21;100.00;112049.66;5113250;28;20597;-71
2022/10/18 05:00:35;;;;;;;10.07;3.70;;;19.00;84.70;;;-142.21;100.00;112049.66;5112307;28;20202;-71
2022/10/18 05:03:02;;;;;;;7.60;4.30;;;18.90;85.80;;;-142.21;100.00;112049.66;5113139;28;20598;-71
2022/10/18 05:05:31;;;;;;;4.53;3.57;;;18.90;85.20;;;-142.21;100.00;112049.66;5112076;28;20547;-71
2022/10/18 05:07:58;;;;;;;7.67;3.73;;;18.90;85.10;;;-142.21;100.00;112049.66;5112802;28;20441;-71
2022/10/18 05:10:25;;;;;;;7.43;4.37;;;18.90;84.70;;;-142.21;100.00;112049.66;5112110;28;20208;-71
2022/10/18 05:12:53;;;;;;;7.67;4.10;;;19.00;84.60;;;-142.21;100.00;112049.66;5112370;28;20536;-70
2022/10/18 05:15:20;;;;;;;10.57;4.13;;;19.00;84.20;;;-142.21;100.00;112049.66;5112057;28;20534;-70
2022/10/18 05:17:47;;;;;;;8.73;3.43;;;19.00;84.10;;;-142.21;100.00;112049.66;5112650;28;20235;-71
2022/10/18 05:20:14;;;;;;;8.97;3.83;;;19.10;84.10;;;-142.21;100.00;112049.66;5111962;28;20441;-71
2022/10/18 05:22:43;;;;;;;5.63;3.53;;;19.10;84.20;;;-142.21;100.00;112049.66;5112695;28;20655;-70
2022/10/18 05:25:10;;;;;;;13.47;4.33;;;19.10;84.20;;;-142.21;100.00;112049.66;5112566;28;20567;-71
2022/10/18 05:27:38;;;;;;;5.70;3.80;;;19.10;84.20;;;-142.21;100.00;112049.66;5111947;28;20307;-71
2022/10/18 05:30:06;;;;;;;4.60;4.20;;;19.10;84.20;;;-142.21;100.00;112049.66;5112411;28;20640;-71
2022/10/18 05:32:34;;;;;;;9.10;4.27;;;19.00;84.30;;;-142.21;100.00;112049.66;5111901;28;20204;-71
2022/10/18 05:35:04;;;;;;;5.50;3.80;;;19.10;84.50;;;-142.21;100.00;112049.66;5112289;28;20262;-71
2022/10/18 05:37:31;;;;;;;6.10;4.13;;;19.10;84.40;;;-142.21;100.00;112049.66;5112132;28;20200;-70
2022/10/18 05:40:00;;;;;;;7.10;4.27;;;19.10;84.40;;;-142.21;100.00;112049.66;5111882;28;20445;-70
2022/10/18 05:42:27;;;;;;;4.93;3.73;;;19.20;84.60;;;-142.21;100.00;112049.66;5058817;28;20217;-72
2022/10/18 05:44:54;;;;;;;5.20;3.50;;;19.10;84.40;;;-142.21;100.00;112049.66;5112589;28;20484;-70
2022/10/18 05:47:22;;;;;;;5.83;3.90;;;19.20;84.40;;;-142.21;100.00;112049.66;5111360;28;20239;-71
2022/10/18 05:49:49;;;;;;;4.53;4.00;;;19.20;84.30;;;-142.21;100.00;112049.66;5112258;28;20808;-71
2022/10/18 05:52:16;;;;;;;5.07;3.60;;;19.20;84.20;;;-142.21;100.00;112049.66;5111458;28;20446;-71
2022/10/18 05:54:43;;;;;;;9.50;4.23;;;19.20;84.30;;;-142.21;100.00;112049.66;5112093;28;20487;-71
2022/10/18 05:57:12;;;;;;;7.50;3.93;;;19.20;84.20;;;-142.21;100.00;112049.66;5111848;28;20444;-71
2022/10/18 05:59:39;;;;;;;10.20;4.27;;;19.30;84.60;;;-142.21;100.00;112049.66;5111190;28;20501;-71
2022/10/18 06:02:07;;;;;;;6.13;4.03;;;19.30;84.60;;;-142.21;100.00;112049.66;5111665;28;20680;-71
2022/10/18 06:04:34;;;;;;;9.73;4.23;;;19.20;84.40;;;-142.21;100.00;112049.66;5111127;28;20683;-71
2022/10/18 06:07:01;;;;;;;5.80;4.10;;;19.20;84.40;;;-142.21;100.00;112049.66;5112119;28;20207;-70
2022/10/18 06:09:29;;;;;;;7.30;4.13;;;19.20;84.50;;;-142.21;100.00;112049.66;5111527;28;20238;-70
2022/10/18 06:11:57;;;;;;;4.57;3.90;;;19.20;84.50;;;-142.21;100.00;112049.66;5111494;28;20203;-71
2022/10/18 06:14:25;;;;;;;7.03;4.43;;;19.30;84.60;;;-142.21;100.00;112049.66;5111278;28;20441;-71
2022/10/18 06:16:53;;;;;;;9.70;3.90;;;19.30;84.60;;;-142.21;100.00;112049.66;5111547;28;20224;-70
2022/10/18 06:19:20;;;;;;;7.07;4.30;;;19.30;84.60;;;-142.21;100.00;112049.66;5110833;28;20473;-71
2022/10/18 06:21:47;;;;;;;7.97;4.60;;;19.30;84.60;;;-142.21;100.00;112049.66;5111568;28;21024;-71
2022/10/18 06:24:14;;;;;;;8.90;4.20;;;19.30;84.40;;;-142.21;100.00;112049.66;5111790;28;20438;-70
2022/10/18 06:26:41;;;;;;;5.37;4.30;;;19.40;84.50;;;-142.21;100.00;112049.66;5111592;28;20287;-71
2022/10/18 06:29:08;;;;;;;7.57;4.00;;;19.40;84.60;;;-142.21;100.00;112049.66;5111575;28;20540;-70
2022/10/18 06:31:37;;;;;;;9.87;4.97;;;19.40;84.60;;;-142.21;100.00;112049.66;5111362;28;20199;-69
2022/10/18 06:34:05;;;;;;;7.30;3.87;;;19.40;84.80;;;-142.21;100.00;112049.66;5111610;28;20227;-70
2022/10/18 06:36:32;;;;;;;7.10;4.53;;;19.40;84.90;;;-142.21;100.00;112049.66;5110719;28;20276;-70
2022/10/18 06:38:59;;;;;;;5.50;3.73;;;19.40;85.10;;;-142.21;100.00;112049.66;5111478;28;20214;-71
2022/10/18 06:41:27;;;;;;;8.37;4.23;;;19.40;85.10;;;-142.21;100.00;112049.66;5110624;28;20206;-70
2022/10/18 06:43:56;;;;;;;7.53;4.10;;;19.50;85.20;;;-142.21;100.00;112049.66;5111538;28;20648;-71
2022/10/18 06:46:24;;;;;;;6.57;4.10;;;19.50;85.20;;;-142.21;100.00;112049.66;5111188;28;20878;-70
2022/10/18 06:48:52;;;;;;;4.23;3.73;;;19.50;84.60;;;-142.21;100.00;112049.66;5111437;28;20558;-71
2022/10/18 06:51:19;;;;;;;6.77;4.10;;;19.50;84.70;;;-142.21;100.00;112049.66;5111037;28;20318;-71
2022/10/18 06:53:46;;;;;;;7.20;4.27;;;19.50;84.80;;;-142.21;100.00;112049.66;5114247;28;20210;-71
2022/10/18 06:56:14;;;;;;;8.03;3.73;;;19.60;84.80;;;-142.21;100.00;112049.66;5114957;28;20314;-71
2022/10/18 06:58:41;;;;;;;8.90;4.50;;;19.50;84.70;;;-142.21;100.00;112049.66;5114869;28;20204;-70
2022/10/18 07:01:11;;;;;;;6.67;4.27;;;19.50;84.80;;;-142.21;100.00;112049.66;5115401;28;20778;-71
2022/10/18 07:03:39;;;;;;;9.20;3.80;;;19.50;85.20;;;-142.21;100.00;112049.66;5114770;28;20664;-71
2022/10/18 07:06:11;;;;;;;8.17;4.50;;;19.50;85.20;;;-142.21;100.00;112049.66;5115609;28;20303;-71
2022/10/18 07:08:39;;;;;;;4.33;3.73;;;19.50;85.20;;;-142.21;100.00;112049.66;5114923;28;20192;-71
2022/10/18 07:11:08;;;;;;;7.13;4.10;;;19.50;85.40;;;-142.21;100.00;112049.66;5115100;28;20203;-71
2022/10/18 07:13:35;;;;;;;6.70;4.10;;;19.60;85.50;;;-142.21;100.00;112049.66;5114558;28;20721;-71
2022/10/18 07:16:06;;;;;;;8.50;4.00;;;19.70;85.60;;;-142.21;100.00;112049.66;5115058;28;20241;-71
2022/10/18 07:18:34;;;;;;;6.57;4.37;;;19.60;85.70;;;-142.21;100.00;112049.66;5114418;28;20338;-71
2022/10/18 07:21:03;;;;;;;7.07;4.93;;;19.50;86.10;;;-142.21;100.00;112049.66;5115276;28;20203;-70
2022/10/18 07:23:34;;;;;;;5.10;4.43;;;19.50;86.20;;;-142.21;100.00;112049.66;5114426;28;20204;-70
2022/10/18 07:26:03;;;;;;;7.00;5.13;;;19.50;86.20;;;-142.21;100.00;112049.66;5114937;28;20842;-70
2022/10/18 07:28:33;;;;;;;9.10;4.60;;;19.60;86.10;;;-142.21;100.00;112049.66;5114080;28;20223;-70
2022/10/18 07:31:05;;;;;;;8.73;4.60;;;19.60;85.80;;;-142.21;100.00;112049.66;5114953;28;20188;-70
2022/10/18 07:33:32;;;;;;;7.13;5.00;;;19.80;85.50;;;-142.21;100.00;112049.66;5114464;28;20184;-71
2022/10/18 07:36:01;;;;;;;7.73;4.53;;;19.80;85.20;;;-142.21;100.00;112049.66;5114353;28;20228;-71
2022/10/18 07:38:29;;;;;;;5.83;4.83;;;19.80;84.70;;;-142.21;100.00;112049.66;5078225;28;20211;-71
2022/10/18 07:40:59;;;;;;;6.60;4.57;;;19.80;84.80;;;-142.21;100.00;112049.66;5114902;28;20527;-71
2022/10/18 07:43:26;;;;;;;15.30;5.00;;;19.80;84.70;;;-142.21;100.00;112049.66;5114476;28;20214;-70
2022/10/18 07:45:53;;;;;;;5.50;4.40;;;19.90;84.80;;;-142.21;100.00;112049.66;5114268;28;20698;-70
2022/10/18 07:48:21;;;;;;;7.80;4.93;;;19.90;84.60;;;-142.21;100.00;112049.66;5114698;28;20286;-70
2022/10/18 07:50:48;;;;;;;8.10;5.07;;;19.90;84.40;;;-142.21;100.00;112049.66;5096725;28;20227;-70
2022/10/18 07:53:16;;;;;;;5.27;4.40;;;20.00;84.60;;;-142.21;100.00;112049.66;5114486;28;20204;-71
2022/10/18 07:55:43;;;;;;;7.33;4.97;;;20.00;84.20;;;-142.21;100.00;112049.66;5113461;28;20714;-71
2022/10/18 07:58:12;;;;;;;6.83;4.83;;;20.10;84.60;;;-142.21;100.00;112049.66;5114564;28;20545;-70
2022/10/18 08:00:40;;;;;;;9.20;5.53;;;20.10;84.90;;;-142.21;100.00;112049.66;5113683;28;20249;-69
2022/10/18 08:03:07;;;;;;;7.90;5.03;;;20.10;85.20;;;-142.21;100.00;112049.66;5113835;28;20233;-69
2022/10/18 08:05:35;;;;;;;10.87;5.17;;;20.10;85.30;;;-142.21;100.00;112049.66;5113244;28;20261;-69
2022/10/18 08:08:02;;;;;;;5.53;4.57;;;20.10;85.30;;;-142.21;100.00;112049.66;5114096;28;20208;-70
2022/10/18 08:10:29;;;;;;;10.07;5.33;;;20.20;85.60;;;-142.21;100.00;112049.66;5113650;28;20199;-69
2022/10/18 08:12:56;;;;;;;8.17;4.97;;;20.10;85.60;;;-142.21;100.00;112049.66;5113985;28;20212;-70
2022/10/18 08:15:25;;;;;;;6.63;4.83;;;20.10;85.70;;;-142.21;100.00;112049.66;5113051;28;20668;-71
2022/10/18 08:17:52;;;;;;;13.87;6.17;;;20.10;85.90;;;-142.21;100.00;112049.66;5113516;28;20575;-69
2022/10/18 08:20:20;;;;;;;8.90;5.00;;;20.10;86.00;;;-142.21;100.00;112049.66;5113834;28;20261;-70
2022/10/18 08:22:50;;;;;;;8.97;4.70;;;20.30;86.10;;;-142.21;100.00;112049.66;5113412;28;20290;-70
2022/10/18 08:25:17;;;;;;;10.87;5.80;;;20.30;85.90;;;-142.21;100.00;112049.66;5114196;28;20188;-70
2022/10/18 08:27:45;;;;;;;9.30;5.00;;;20.40;85.80;;;-142.21;100.00;112049.66;5113433;28;20284;-70
2022/10/18 08:30:13;;;;;;;8.80;5.20;;;20.60;86.00;;;-142.21;100.00;112049.66;5113578;28;20273;-69
2022/10/18 08:32:41;;;;;;;8.00;4.70;;;20.60;85.50;;;-142.21;100.00;112049.66;5113290;28;20216;-69
2022/10/18 08:35:09;;;;;;;6.17;4.50;;;20.70;85.30;;;-142.21;100.00;112049.66;5113526;28;20246;-70
2022/10/18 08:37:37;;;;;;;6.23;4.77;;;20.70;85.10;;;-142.21;100.00;112049.66;5112389;28;20700;-69
2022/10/18 08:40:05;;;;;;;6.43;4.27;;;20.80;85.00;;;-142.21;100.00;112049.66;5113628;28;20208;-69
2022/10/18 08:43:03;;;;;;;6.50;4.53;;;20.80;84.60;;;-142.21;100.00;112049.66;5112747;28;20679;-70
2022/10/18 08:45:36;;;;;;;5.70;4.27;;;20.90;84.50;;;-142.21;100.00;112049.66;5111548;28;20245;-70
2022/10/18 08:48:07;;;;;;;8.17;5.33;;;20.90;84.10;;;-142.21;100.00;112049.66;5113565;28;20705;-71
2022/10/18 08:50:37;;;;;;;7.70;4.60;;;21.00;84.30;;;-142.21;100.00;112049.66;5112592;28;20235;-69
2022/10/18 08:53:16;;;;;;;6.33;4.40;;;21.10;84.20;;;-142.21;100.00;112049.66;5112765;28;20250;-69
2022/10/18 08:55:51;;;;;;;8.77;4.40;;;21.10;83.60;;;-142.21;100.00;112049.66;5112833;28;20215;-71
2022/10/18 08:58:21;;;;;;;6.53;4.20;;;21.30;84.00;;;-142.21;100.00;112049.66;5112999;28;20217;-70
2022/10/18 09:01:02;;;;;;;9.23;4.53;;;21.40;83.30;;;-142.21;100.00;112049.66;5112733;28;20192;-70
2022/10/18 09:04:01;;;;;;;6.53;4.70;;;21.40;83.10;;;-142.21;100.00;112049.66;5112751;28;20188;-70
2022/10/18 09:06:35;;;;;;;4.47;3.70;;;21.40;82.90;;;-142.21;100.00;112049.66;5112169;28;20204;-70
2022/10/18 09:09:28;;;;;;;7.53;4.30;;;21.40;82.50;;;-142.21;100.00;112049.66;5112769;28;20233;-71
2022/10/18 09:12:12;;;;;;;5.77;4.00;;;21.40;82.20;;;-142.21;100.00;112049.66;5112876;28;20253;-71
2022/10/18 09:15:02;;;;;;;5.53;4.23;;;21.30;82.20;;;-142.21;100.00;112049.66;5112011;28;20225;-70
2022/10/18 09:17:44;;;;;;;6.40;4.17;;;21.30;82.90;;;-142.21;100.00;112049.66;5111849;28;20282;-70
2022/10/18 09:20:24;;;;;;;5.30;4.20;;;21.30;83.00;;;-142.21;100.00;112049.66;5112257;28;20192;-71
2022/10/18 09:22:56;;;;;;;6.33;3.77;;;21.40;82.40;;;-142.21;100.00;112049.66;5112954;28;20536;-70
2022/10/18 09:25:31;;;;;;;6.13;3.60;;;21.40;82.60;;;-142.21;100.00;112049.66;5112867;28;20190;-71
2022/10/18 09:28:22;;;;;;;5.93;3.53;;;21.40;82.20;;;-142.21;100.00;112049.66;5112381;28;20223;-69
2022/10/18 09:31:03;;;;;;;6.20;3.70;;;21.40;82.40;;;-142.21;100.00;112049.66;5096638;28;20644;-70
2022/10/18 09:33:45;;;;;;;7.07;4.30;;;21.40;82.40;;;-142.21;100.00;112049.66;5112053;28;20195;-71
2022/10/18 09:36:21;;;;;;;8.73;3.70;;;21.50;82.40;;;-142.21;100.00;112049.66;5059429;28;20310;-71
2022/10/18 09:38:55;;;;;;;4.10;3.40;;;21.60;82.30;;;-142.21;100.00;112049.66;5112198;28;20552;-71
2022/10/18 09:41:29;;;;;;;6.37;3.50;;;21.60;82.40;;;-142.21;100.00;112049.66;5112103;28;20226;-71
2022/10/18 09:44:05;;;;;;;4.87;3.33;;;21.70;82.20;;;-142.21;100.00;112049.66;5112748;28;20184;-71
2022/10/18 09:46:39;;;;;;;7.87;4.10;;;21.90;82.20;;;-142.21;100.00;112049.66;5111401;28;20194;-71
2022/10/18 09:49:15;;;;;;;5.20;3.50;;;22.00;81.80;;;-142.21;100.00;112049.66;5112254;28;20234;-70
2022/10/18 09:51:47;;;;;;;5.00;3.97;;;22.00;81.60;;;-142.21;100.00;112049.66;5111413;28;20226;-71
2022/10/18 09:54:33;;;;;;;5.40;3.87;;;22.00;81.20;;;-142.21;100.00;112049.66;5112356;28;20183;-71
2022/10/18 09:57:06;;;;;;;4.40;3.57;;;22.00;81.30;;;-142.21;100.00;112049.66;5112100;28;20212;-71
2022/10/18 09:59:41;;;;;;;4.03;3.63;;;22.00;81.60;;;-142.21;100.00;112049.66;5111459;28;20265;-71
2022/10/18 10:02:15;;;;;;;12.33;4.50;;;22.20;81.80;;;-142.21;100.00;112049.66;5112167;28;20376;-70
2022/10/18 10:04:43;;;;;;;6.23;3.83;;;22.40;80.70;;;-142.21;100.00;112049.66;5111044;28;20282;-71
2022/10/18 10:07:16;;;;;;;5.27;3.77;;;22.70;80.70;;;-142.21;100.00;112049.66;5111960;28;20235;-71